Time;durP1;ratioP1;P1;durP2;ratioP2;P2;SDS_P1;SDS_P2;PMS_P1;PMS_P2;Temp;Humidity;BMP_temperature;BMP_pressure;BME280_temperature;BME280_humidity;BME280_pressure;Samples;Min_cycle;Max_cycle;Signal;HPM_P1;HPM_P2
2021/07/03 00:00:39;;;;;;;1.60;1.10;;;;;;;15.89;68.23;99000.78;5074020;28;40255;-83
2021/07/03 00:03:07;;;;;;;2.20;1.33;;;;;;;15.78;68.24;98990.97;5073964;28;40737;-83
2021/07/03 00:05:34;;;;;;;0.93;0.93;;;;;;;15.70;68.09;98972.91;5072637;28;42714;-83
2021/07/03 00:08:02;;;;;;;1.47;1.10;;;;;;;15.75;68.08;98993.91;5089663;28;42304;-83
2021/07/03 00:10:30;;;;;;;1.30;1.20;;;;;;;15.77;67.96;99006.16;5073490;28;39038;-83
2021/07/03 00:12:58;;;;;;;1.43;1.20;;;;;;;15.66;68.21;98983.97;5089476;28;42641;-83
2021/07/03 00:15:26;;;;;;;2.53;1.90;;;;;;;15.67;68.22;98999.03;5107297;27;42102;-84
2021/07/03 00:17:57;;;;;;;1.23;1.13;;;;;;;15.69;68.23;99002.41;5089656;28;42489;-84
2021/07/03 00:20:26;;;;;;;1.53;1.40;;;;;;;15.45;68.38;98963.31;5089035;28;39952;-83
2021/07/03 00:22:54;;;;;;;1.03;0.93;;;;;;;15.63;68.47;99002.91;5089336;28;42607;-83
2021/07/03 00:25:23;;;;;;;0.97;0.93;;;;;;;15.51;68.33;98998.53;5072560;28;42691;-83
2021/07/03 00:27:51;;;;;;;1.43;1.30;;;;;;;15.53;68.46;98996.59;5072887;28;40965;-83
2021/07/03 00:30:19;;;;;;;1.40;0.90;;;;;;;15.54;68.50;99008.97;5072776;28;40455;-84
2021/07/03 00:32:46;;;;;;;0.90;0.90;;;;;;;15.33;68.77;98969.66;5072732;28;42140;-84
2021/07/03 00:35:15;;;;;;;1.63;1.03;;;;;;;15.39;68.48;98985.19;5072421;28;41954;-84
2021/07/03 00:37:43;;;;;;;1.70;1.10;;;;;;;15.37;68.81;98986.28;5073513;28;41333;-83
2021/07/03 00:40:13;;;;;;;1.27;1.17;;;;;;;15.33;68.83;98979.50;5072374;28;39101;-83
2021/07/03 00:42:41;;;;;;;1.00;0.90;;;;;;;15.39;68.94;98995.00;5090178;28;40663;-84
2021/07/03 00:45:10;;;;;;;1.53;1.20;;;;;;;15.35;69.37;98994.41;5105857;28;41886;-83
2021/07/03 00:47:39;;;;;;;1.67;1.47;;;;;;;15.21;69.41;98980.47;5073006;28;41544;-83
2021/07/03 00:50:10;;;;;;;2.30;2.20;;;;;;;15.23;69.16;98990.03;5072030;28;39390;-83
2021/07/03 00:52:42;;;;;;;0.50;0.47;;;;;;;15.26;68.92;98997.81;5073333;28;41710;-83
2021/07/03 00:55:16;;;;;;;1.50;1.40;;;;;;;15.20;69.07;98992.97;5071363;28;42986;-83
2021/07/03 00:57:45;;;;;;;1.33;1.13;;;;;;;15.21;69.29;98999.13;5073493;28;42432;-83
2021/07/03 01:00:16;;;;;;;1.23;1.00;;;;;;;15.17;69.20;99005.69;5088877;28;40065;-84
2021/07/03 01:02:44;;;;;;;1.20;0.87;;;;;;;15.02;69.14;98978.41;5088727;28;42579;-82
2021/07/03 01:09:20;;;;;;;3.70;2.13;;;;;;;14.93;69.54;98987.16;5088705;28;42928;-83
2021/07/03 01:11:50;;;;;;;0.70;0.70;;;;;;;14.90;69.60;98992.72;5072997;28;38796;-83
2021/07/03 01:14:18;;;;;;;1.10;1.00;;;;;;;14.84;69.50;98987.84;5071255;28;41873;-83
2021/07/03 01:16:47;;;;;;;1.70;1.03;;;;;;;14.95;69.91;99007.41;5052192;28;42219;-83
2021/07/03 01:19:16;;;;;;;1.30;1.20;;;;;;;14.83;69.46;98986.16;5063857;28;41901;-83
2021/07/03 01:21:49;;;;;;;2.57;0.97;;;;;;;14.80;70.26;98981.06;5052105;28;40277;-83
2021/07/03 01:24:16;;;;;;;0.77;0.77;;;;;;;14.81;69.80;98988.09;5052081;28;41266;-83
2021/07/03 01:26:46;;;;;;;1.20;1.10;;;;;;;14.76;70.11;98990.25;5068466;28;43769;-83
2021/07/03 01:29:17;;;;;;;0.83;0.80;;;;;;;14.83;70.02;98996.84;5063301;28;41362;-84
2021/07/03 01:31:47;;;;;;;1.43;1.07;;;;;;;14.71;69.69;98985.31;5071286;28;40461;-84
2021/07/03 01:34:49;;;;;;;1.77;1.20;;;;;;;14.78;70.17;98999.84;5088180;28;41967;-83
2021/07/03 01:37:28;;;;;;;1.43;1.30;;;;;;;14.65;70.09;98994.59;5072173;28;41824;-83
2021/07/03 01:39:59;;;;;;;1.03;0.87;;;;;;;14.64;69.90;98992.91;5071811;28;41488;-84
2021/07/03 01:42:28;;;;;;;1.70;1.27;;;;;;;14.59;69.96;98984.41;5072540;28;38909;-83
2021/07/03 01:44:57;;;;;;;0.60;0.60;;;;;;;14.57;70.21;98989.03;5087619;28;42500;-84
2021/07/03 01:47:26;;;;;;;1.67;1.57;;;;;;;14.58;70.42;98985.41;5072764;28;42047;-83
2021/07/03 01:49:54;;;;;;;2.30;0.87;;;;;;;14.62;70.16;98993.97;5072208;28;41415;-83
2021/07/03 01:52:24;;;;;;;1.40;1.00;;;;;;;14.60;70.17;98995.91;5072042;28;39285;-83
2021/07/03 01:54:58;;;;;;;1.07;1.00;;;;;;;14.51;70.39;98991.28;5071958;28;40701;-83
2021/07/03 01:57:27;;;;;;;0.80;0.80;;;;;;;14.51;70.23;98981.50;5072490;28;41621;-83
2021/07/03 02:00:22;;;;;;;1.23;0.80;;;;;;;14.48;70.10;98981.72;5085066;28;41432;-83
2021/07/03 02:02:50;;;;;;;1.47;1.37;;;;;;;14.52;70.25;98991.19;5089213;28;38898;-83
2021/07/03 02:05:39;;;;;;;0.97;0.80;;;;;;;14.53;70.30;98997.38;5072117;28;40537;-83
2021/07/03 02:08:09;;;;;;;0.67;0.63;;;;;;;14.42;70.29;98979.53;5067883;28;41984;-83
2021/07/03 02:10:41;;;;;;;1.20;1.10;;;;;;;14.49;70.17;98990.56;5051252;28;42597;-83
2021/07/03 02:13:09;;;;;;;1.47;0.80;;;;;;;14.40;70.55;98985.94;5051980;28;38835;-83
2021/07/03 02:15:39;;;;;;;1.30;0.97;;;;;;;14.46;70.66;98996.16;5064803;28;40742;-83
2021/07/03 02:18:18;;;;;;;1.50;1.40;;;;;;;14.35;70.84;98988.91;5087874;28;42493;-83
2021/07/03 02:20:47;;;;;;;1.63;1.10;;;;;;;14.40;70.80;99001.94;5071495;28;41483;-83
2021/07/03 02:23:19;;;;;;;1.30;0.93;;;;;;;14.36;70.68;98995.94;5087883;28;40977;-83
2021/07/03 02:25:53;;;;;;;0.93;0.73;;;;;;;14.33;70.78;98999.72;5071913;28;40937;-84
2021/07/03 02:28:25;;;;;;;0.73;0.73;;;;;;;14.23;71.16;98987.16;5073406;28;43093;-83
2021/07/03 02:31:00;;;;;;;1.07;0.97;;;;;;;14.18;71.32;98979.53;5074039;28;41035;-83
2021/07/03 02:33:28;;;;;;;1.23;1.13;;;;;;;14.16;71.11;98981.47;5074533;28;39115;-83
2021/07/03 02:36:00;;;;;;;1.10;1.00;;;;;;;14.14;71.18;98993.19;5074341;28;40488;-83
2021/07/03 02:38:31;;;;;;;1.77;0.93;;;;;;;14.10;71.06;98991.72;5092573;28;43245;-83
2021/07/03 02:41:00;;;;;;;1.17;1.00;;;;;;;14.09;71.21;98995.38;5074640;28;42476;-82
2021/07/03 02:43:30;;;;;;;1.03;1.00;;;;;;;14.06;70.98;99000.91;5074836;28;40020;-83
2021/07/03 02:46:03;;;;;;;1.27;1.00;;;;;;;14.13;71.24;99021.63;5073841;28;41939;-83
2021/07/03 02:48:31;;;;;;;1.13;1.00;;;;;;;14.11;71.31;99014.72;5074540;28;43191;-83
2021/07/03 02:50:59;;;;;;;0.73;0.70;;;;;;;14.03;71.39;99002.84;5074357;28;41507;-83
2021/07/03 02:53:26;;;;;;;0.77;0.67;;;;;;;14.00;71.40;99005.72;5091528;28;39945;-83
2021/07/03 02:55:54;;;;;;;0.80;0.70;;;;;;;13.99;71.34;98998.69;5073858;28;40859;-83
2021/07/03 02:58:25;;;;;;;1.10;0.90;;;;;;;14.00;71.49;99003.06;5057582;28;43012;-83
2021/07/03 03:00:53;;;;;;;0.83;0.67;;;;;;;13.91;71.29;98987.78;5074986;28;41689;-83
2021/07/03 03:03:21;;;;;;;1.20;1.00;;;;;;;14.03;71.33;99010.81;5074768;28;40085;-82
2021/07/03 03:05:48;;;;;;;1.73;1.37;;;;;;;13.91;71.68;98992.25;5075233;28;40956;-83
2021/07/03 03:08:17;;;;;;;1.77;1.20;;;;;;;14.00;71.88;98997.72;5074657;28;41793;-83
2021/07/03 03:10:45;;;;;;;1.20;1.10;;;;;;;13.91;71.73;98987.78;5070841;28;41424;-83
2021/07/03 03:13:13;;;;;;;1.33;1.23;;;;;;;13.93;71.83;99006.31;5054205;28;38742;-83
2021/07/03 03:15:42;;;;;;;1.93;1.30;;;;;;;14.01;71.82;99020.75;5062326;28;41993;-83
2021/07/03 03:18:10;;;;;;;1.17;1.07;;;;;;;13.93;71.68;98999.16;5091150;28;42899;-83
2021/07/03 03:20:40;;;;;;;0.77;0.70;;;;;;;13.91;71.84;98998.41;5073669;28;43623;-83
2021/07/03 03:23:09;;;;;;;1.33;0.77;;;;;;;13.94;71.64;99011.50;5074858;28;38821;-83
2021/07/03 03:25:37;;;;;;;0.83;0.73;;;;;;;13.95;71.79;99015.88;5070078;28;40785;-83
2021/07/03 03:28:05;;;;;;;1.07;0.97;;;;;;;13.98;71.53;99020.97;5054215;28;41623;-83
2021/07/03 03:30:33;;;;;;;0.77;0.77;;;;;;;13.99;71.54;99020.00;5053769;28;42304;-83
2021/07/03 03:33:03;;;;;;;1.17;1.07;;;;;;;13.98;71.69;99023.63;5054461;28;39816;-83
2021/07/03 03:35:32;;;;;;;1.47;1.23;;;;;;;14.00;71.50;99027.03;5067957;28;41574;-83
2021/07/03 03:38:03;;;;;;;0.63;0.63;;;;;;;13.96;71.86;99014.06;5073754;28;42685;-83
2021/07/03 03:40:34;;;;;;;0.73;0.60;;;;;;;13.92;71.88;99002.78;5073168;28;41318;-82
2021/07/03 03:43:03;;;;;;;1.83;1.00;;;;;;;13.92;71.86;99009.94;5074557;28;38932;-83
2021/07/03 03:45:34;;;;;;;1.50;1.00;;;;;;;13.98;71.51;99015.63;5073558;28;41666;-83
2021/07/03 03:48:06;;;;;;;0.63;0.53;;;;;;;13.86;71.55;98994.38;5090976;28;43166;-83
2021/07/03 03:50:40;;;;;;;1.80;1.23;;;;;;;14.03;71.85;99018.81;5073807;28;41134;-83
2021/07/03 03:53:09;;;;;;;1.10;1.00;;;;;;;14.03;71.88;99018.81;5074333;28;39039;-83
2021/07/03 03:55:36;;;;;;;0.87;0.80;;;;;;;14.06;71.72;99016.91;5074474;28;41026;-83
2021/07/03 03:58:07;;;;;;;0.90;0.90;;;;;;;14.03;71.63;99010.81;5070746;28;42122;-83
2021/07/03 04:00:36;;;;;;;0.70;0.70;;;;;;;14.09;71.68;99022.84;5053832;28;41247;-83
2021/07/03 04:03:07;;;;;;;1.13;1.00;;;;;;;14.11;71.56;99025.38;5053796;28;39124;-83
2021/07/03 04:05:42;;;;;;;1.60;0.90;;;;;;;14.08;71.93;99006.97;5053881;28;41586;-84
2021/07/03 04:08:11;;;;;;;1.17;0.87;;;;;;;14.07;72.37;99013.28;5069234;28;41656;-84
2021/07/03 04:10:40;;;;;;;1.17;0.83;;;;;;;14.17;72.13;99008.97;5074326;28;42241;-83
2021/07/03 04:13:08;;;;;;;3.10;2.13;;;;;;;14.24;72.19;99031.50;5074457;28;38815;-83
2021/07/03 04:15:36;;;;;;;1.20;1.10;;;;;;;14.28;72.15;99022.31;5072325;28;41227;-82
2021/07/03 04:18:04;;;;;;;2.13;1.20;;;;;;;14.32;72.16;99026.47;5074274;28;41685;-83
2021/07/03 04:20:33;;;;;;;1.40;1.30;;;;;;;14.29;72.20;99008.03;5073619;28;41067;-83
2021/07/03 04:23:00;;;;;;;1.87;0.97;;;;;;;14.31;72.77;99008.78;5078774;28;40162;-83
2021/07/03 04:25:28;;;;;;;1.30;1.10;;;;;;;14.42;72.78;99024.81;5053169;28;41032;-83
2021/07/03 04:27:55;;;;;;;0.90;0.80;;;;;;;14.39;72.46;99017.03;5054028;28;42004;-83
2021/07/03 04:30:24;;;;;;;1.53;1.20;;;;;;;14.49;72.36;99015.38;5052771;28;41455;-83
2021/07/03 04:32:51;;;;;;;1.30;0.93;;;;;;;14.57;72.13;99022.81;5073565;28;37883;-83
2021/07/03 04:35:19;;;;;;;1.03;0.93;;;;;;;14.55;72.26;99009.59;5089930;28;40611;-83
2021/07/03 04:37:48;;;;;;;2.03;0.80;;;;;;;14.65;72.56;99010.59;5073558;28;42814;-83
2021/07/03 04:40:15;;;;;;;1.33;1.00;;;;;;;14.83;72.29;99024.34;5073128;28;41482;-83
2021/07/03 04:42:43;;;;;;;0.93;0.77;;;;;;;14.83;72.17;99003.00;5072531;28;38804;-83
2021/07/03 04:45:15;;;;;;;1.27;1.13;;;;;;;15.17;71.98;99024.38;5071196;28;41982;-83
2021/07/03 04:47:42;;;;;;;1.37;1.17;;;;;;;15.24;72.06;99010.41;5106329;28;43256;-83
2021/07/03 04:50:11;;;;;;;1.93;1.17;;;;;;;15.48;71.91;99030.78;5071525;28;42047;-83
2021/07/03 04:52:38;;;;;;;1.30;1.20;;;;;;;15.54;71.97;99019.63;5073182;28;38999;-83
2021/07/03 04:55:09;;;;;;;0.67;0.67;;;;;;;15.71;71.61;99011.13;5090133;28;42014;-83
2021/07/03 04:57:37;;;;;;;1.70;1.57;;;;;;;15.79;71.58;99009.56;5073505;28;43296;-83
2021/07/03 05:00:07;;;;;;;2.30;1.60;;;;;;;16.00;71.66;99025.63;5072586;28;41199;-83
2021/07/03 05:02:34;;;;;;;1.27;1.13;;;;;;;16.11;71.47;99022.94;5072628;28;38838;-83
2021/07/03 05:05:02;;;;;;;1.23;1.13;;;;;;;16.29;71.07;99027.75;5072203;28;40892;-83
2021/07/03 05:07:29;;;;;;;1.03;0.93;;;;;;;16.35;71.02;99011.19;5071620;28;41720;-84
2021/07/03 05:10:01;;;;;;;0.90;0.90;;;;;;;16.44;71.33;99002.41;5072548;28;41164;-83
2021/07/03 05:12:30;;;;;;;1.57;1.23;;;;;;;16.66;70.87;99010.34;5071770;28;38905;-83
2021/07/03 05:14:58;;;;;;;1.60;1.50;;;;;;;16.71;70.90;98999.22;5072376;28;41660;-83
2021/07/03 05:17:25;;;;;;;1.60;1.47;;;;;;;16.79;70.84;99004.78;5072927;28;41821;-83
2021/07/03 05:19:53;;;;;;;3.50;2.47;;;;;;;16.88;70.52;98999.50;5070865;28;41307;-84
2021/07/03 05:22:21;;;;;;;3.00;1.83;;;;;;;17.09;70.66;99022.69;5072275;28;39004;-84
2021/07/03 05:24:48;;;;;;;1.53;1.43;;;;;;;17.12;70.26;99001.03;5088341;28;42029;-83
2021/07/03 05:27:16;;;;;;;2.07;1.80;;;;;;;17.29;70.31;99007.59;5072485;28;41686;-84
2021/07/03 05:29:45;;;;;;;2.13;2.00;;;;;;;17.41;70.14;99017.22;5071419;28;41326;-83
2021/07/03 05:32:12;;;;;;;2.77;2.20;;;;;;;17.37;69.88;99005.91;5072346;28;39736;-84
2021/07/03 05:34:40;;;;;;;1.67;1.57;;;;;;;17.52;69.93;99015.28;5071416;28;41676;-84
2021/07/03 05:37:07;;;;;;;2.20;1.83;;;;;;;17.62;69.72;99020.66;5071627;28;42296;-83
2021/07/03 05:39:35;;;;;;;3.03;1.83;;;;;;;17.63;69.62;98994.72;5098367;28;43595;-83
2021/07/03 05:42:03;;;;;;;2.17;1.93;;;;;;;17.65;69.34;98988.28;5090280;28;38609;-83
2021/07/03 05:44:31;;;;;;;2.87;1.87;;;;;;;17.80;69.23;99012.88;5090279;28;40748;-83
2021/07/03 05:47:00;;;;;;;1.50;1.30;;;;;;;17.74;69.17;98981.25;5090686;28;41625;-83
2021/07/03 05:49:27;;;;;;;3.10;2.00;;;;;;;17.82;69.30;98990.28;5110088;28;42465;-82
2021/07/03 05:51:55;;;;;;;2.90;1.90;;;;;;;17.88;69.37;98986.22;5092773;28;40152;-83
2021/07/03 05:54:23;;;;;;;2.20;1.67;;;;;;;18.00;69.06;98997.66;5080849;28;40618;-83
2021/07/03 05:56:50;;;;;;;2.33;2.03;;;;;;;18.37;68.64;99005.88;5074696;28;41638;-84
2021/07/03 05:59:18;;;;;;;2.50;1.70;;;;;;;18.69;67.25;98984.97;5074235;28;40976;-84
2021/07/03 06:01:46;;;;;;;3.23;1.53;;;;;;;19.11;66.36;98984.59;5076365;28;39084;-83
2021/07/03 06:04:14;;;;;;;3.60;2.70;;;;;;;19.25;65.37;98986.78;5072423;28;40736;-83
2021/07/03 06:06:42;;;;;;;1.70;1.57;;;;;;;19.18;65.60;98988.34;5093109;28;43196;-84
2021/07/03 06:09:10;;;;;;;2.13;1.90;;;;;;;19.20;66.34;98995.28;5074226;28;41505;-84
2021/07/03 06:11:37;;;;;;;1.80;1.67;;;;;;;19.14;66.66;98985.16;5075286;28;38842;-84
2021/07/03 06:14:05;;;;;;;2.97;2.53;;;;;;;19.21;66.52;98996.13;5090801;28;41616;-83
2021/07/03 06:16:33;;;;;;;2.03;1.70;;;;;;;19.10;66.31;98981.06;5092035;28;43243;-83
2021/07/03 06:19:01;;;;;;;2.80;2.60;;;;;;;19.11;66.53;98984.59;5091508;28;41216;-83
2021/07/03 06:21:31;;;;;;;1.47;1.30;;;;;;;19.21;66.62;98985.38;5074809;28;39067;-83
2021/07/03 06:23:58;;;;;;;3.00;2.07;;;;;;;19.41;66.38;98997.72;5090900;28;41929;-83
2021/07/03 06:26:26;;;;;;;1.73;1.47;;;;;;;19.54;66.13;98982.16;5074044;28;43139;-83
2021/07/03 06:28:54;;;;;;;2.20;1.77;;;;;;;19.71;65.20;98989.41;5074685;28;41412;-84
2021/07/03 06:31:21;;;;;;;2.63;2.10;;;;;;;19.81;65.01;98985.81;5074882;28;39056;-83
2021/07/03 06:33:49;;;;;;;2.33;1.70;;;;;;;19.96;64.97;98987.84;5091246;28;41409;-83
2021/07/03 06:36:16;;;;;;;1.63;1.53;;;;;;;20.08;64.64;98977.72;5075100;28;42525;-83
2021/07/03 06:38:45;;;;;;;3.47;2.37;;;;;;;20.21;64.78;98983.56;5074817;28;42357;-84
2021/07/03 06:41:13;;;;;;;2.40;2.20;;;;;;;20.45;64.41;98985.66;5073745;28;39311;-83
2021/07/03 06:43:40;;;;;;;2.80;2.07;;;;;;;20.65;63.47;98995.22;5073513;28;40595;-83
2021/07/03 06:46:08;;;;;;;3.07;2.37;;;;;;;20.85;62.74;99000.44;5073981;28;42609;-83
2021/07/03 06:48:35;;;;;;;2.97;2.20;;;;;;;20.86;62.25;98992.22;5073468;28;41467;-83
2021/07/03 06:51:03;;;;;;;2.10;1.90;;;;;;;20.99;61.48;98991.78;5074294;28;38828;-83
2021/07/03 06:53:31;;;;;;;2.47;2.23;;;;;;;21.14;61.27;99001.78;5073685;28;40736;-83
2021/07/03 06:56:01;;;;;;;2.40;1.63;;;;;;;21.26;61.16;98996.19;5073636;28;42756;-82
2021/07/03 06:58:28;;;;;;;3.07;2.23;;;;;;;21.37;60.38;98995.91;5072481;28;41335;-84
2021/07/03 07:00:56;;;;;;;2.63;1.90;;;;;;;21.48;58.29;99009.09;5090700;28;40032;-82
2021/07/03 07:03:24;;;;;;;2.57;2.20;;;;;;;21.66;58.59;99001.75;5089946;28;41667;-83
2021/07/03 07:05:51;;;;;;;3.87;3.20;;;;;;;21.99;58.61;99001.91;5073738;28;42329;-84
2021/07/03 07:08:19;;;;;;;2.53;2.00;;;;;;;22.20;58.08;98988.78;5090834;28;42076;-83
2021/07/03 07:10:47;;;;;;;1.67;1.57;;;;;;;22.86;56.70;99014.84;5091001;28;39072;-83
2021/07/03 07:13:16;;;;;;;2.03;1.90;;;;;;;23.19;55.72;99008.38;5072991;28;40614;-84
2021/07/03 07:15:43;;;;;;;3.77;2.40;;;;;;;23.44;55.49;99011.00;5073448;28;42689;-82
2021/07/03 07:18:11;;;;;;;2.27;1.77;;;;;;;23.35;54.68;98996.69;5090308;28;41082;-83
2021/07/03 07:20:38;;;;;;;3.17;2.47;;;;;;;23.24;55.37;98968.13;5073811;28;39086;-82
2021/07/03 07:23:23;;;;;;;2.70;2.37;;;;;;;23.43;55.36;98990.38;5074069;28;40915;-84
2021/07/03 07:25:54;;;;;;;2.60;2.03;;;;;;;23.47;55.86;98986.34;5073360;28;43193;-84
2021/07/03 07:28:23;;;;;;;1.90;1.70;;;;;;;23.67;54.97;98993.03;5091970;28;42015;-83
2021/07/03 07:30:50;;;;;;;2.30;1.80;;;;;;;23.90;53.78;98990.38;5086143;28;40088;-82
2021/07/03 07:33:18;;;;;;;2.57;2.27;;;;;;;24.64;52.31;98992.44;5092001;28;41016;-83
2021/07/03 07:35:46;;;;;;;2.33;1.97;;;;;;;25.61;51.09;99001.47;5092331;28;41799;-83
2021/07/03 07:38:13;;;;;;;2.17;1.90;;;;;;;26.61;48.14;99015.19;5073997;28;42596;-83
2021/07/03 07:40:41;;;;;;;2.40;1.90;;;;;;;27.64;45.24;99016.47;5074419;28;38918;-85
2021/07/03 07:43:08;;;;;;;1.80;1.57;;;;;;;29.00;42.57;99029.03;5093151;28;41630;-83
2021/07/03 07:45:37;;;;;;;2.30;1.93;;;;;;;30.51;40.34;99046.94;5090814;28;41866;-84
2021/07/03 07:48:05;;;;;;;2.27;1.73;;;;;;;31.97;38.09;99052.88;5090160;28;42318;-84
2021/07/03 07:50:33;;;;;;;2.00;1.80;;;;;;;33.18;35.58;99061.72;5073209;28;39031;-85
2021/07/03 07:53:00;;;;;;;2.33;2.10;;;;;;;34.24;32.73;99070.78;5091028;28;41961;-84
2021/07/03 07:55:28;;;;;;;2.33;2.13;;;;;;;35.11;31.90;99071.41;5072860;28;43147;-85
2021/07/03 07:57:56;;;;;;;2.17;2.03;;;;;;;35.98;31.57;99077.16;5090755;28;40764;-84
2021/07/03 08:00:23;;;;;;;2.03;1.87;;;;;;;36.35;30.87;99071.88;5072317;28;39236;-83
2021/07/03 08:02:52;;;;;;;2.23;2.00;;;;;;;35.98;31.00;99077.16;5082565;28;41823;-84
2021/07/03 08:05:20;;;;;;;3.70;1.83;;;;;;;34.98;32.67;99040.59;5071465;28;42103;-83
2021/07/03 08:07:48;;;;;;;2.50;2.20;;;;;;;34.03;33.27;99057.69;5071827;28;42301;-83
2021/07/03 08:10:16;;;;;;;2.87;2.43;;;;;;;33.57;33.21;99050.31;5087745;28;39796;-84
2021/07/03 08:12:44;;;;;;;2.30;2.10;;;;;;;34.09;33.79;99040.22;5072352;28;40984;-83
2021/07/03 08:15:14;;;;;;;1.97;1.80;;;;;;;35.19;33.05;99035.19;5072337;28;42821;-83
2021/07/03 08:17:44;;;;;;;2.00;1.90;;;;;;;36.54;30.94;99050.31;5089836;28;42274;-83
2021/07/03 08:20:17;;;;;;;1.80;1.70;;;;;;;37.64;29.98;99053.53;5089051;28;40888;-84
2021/07/03 08:22:45;;;;;;;1.92;1.80;;;;;;;38.59;29.08;99068.94;5088594;28;41179;-84
2021/07/03 08:25:14;;;;;;;1.67;1.58;;;;;;;39.03;28.26;99082.34;5087692;28;41928;-83
2021/07/03 08:27:42;;;;;;;2.28;2.08;;;;;;;38.74;28.01;99071.75;5089262;28;41167;-83
2021/07/03 08:30:12;;;;;;;2.22;2.10;;;;;;;38.14;28.71;99060.47;5071311;28;39841;-83
2021/07/03 08:32:40;;;;;;;2.50;2.30;;;;;;;37.50;29.95;99055.06;5088571;28;42027;-83
2021/07/03 08:35:09;;;;;;;2.03;1.93;;;;;;;36.98;29.48;99025.34;5089053;28;43510;-84
2021/07/03 08:37:39;;;;;;;2.00;1.90;;;;;;;37.10;29.36;99039.81;5089080;28;43214;-83
2021/07/03 08:40:08;;;;;;;2.10;1.90;;;;;;;37.34;28.30;99038.38;5088932;28;40881;-84
2021/07/03 08:42:36;;;;;;;1.93;1.77;;;;;;;37.74;26.72;99056.34;5070717;28;40791;-84
2021/07/03 08:45:05;;;;;;;1.77;1.67;;;;;;;38.43;26.33;99053.38;5072021;28;41803;-83
2021/07/03 08:47:33;;;;;;;2.50;2.30;;;;;;;39.39;25.69;99055.47;5089539;28;42319;-83
2021/07/03 08:50:02;;;;;;;2.10;1.80;;;;;;;40.22;24.74;99056.69;5089707;28;40171;-82
2021/07/03 08:52:30;;;;;;;2.35;2.17;;;;;;;40.74;23.51;99060.88;5088780;28;41458;-83
2021/07/03 08:55:14;;;;;;;1.88;1.77;;;;;;;41.27;22.86;99066.63;5073806;28;42122;-83
2021/07/03 08:57:45;;;;;;;1.50;1.40;;;;;;;41.76;23.70;99054.50;5089448;28;42317;-84
2021/07/03 09:00:15;;;;;;;1.85;1.75;;;;;;;41.91;23.08;99052.38;5072450;28;39244;-83
2021/07/03 09:02:44;;;;;;;1.63;1.52;;;;;;;41.88;22.57;99043.78;5072494;28;41867;-83
2021/07/03 09:05:29;;;;;;;1.90;1.80;;;;;;;41.52;23.27;99035.81;5089486;28;43295;-84
2021/07/03 09:08:02;;;;;;;1.70;1.60;;;;;;;41.53;23.17;99051.38;5072019;28;41241;-83
2021/07/03 09:10:33;;;;;;;2.40;2.25;;;;;;;41.76;22.89;99044.19;5088723;28;40123;-84
2021/07/03 09:13:02;;;;;;;2.85;2.65;;;;;;;42.20;21.82;99038.41;5089596;28;42005;-83
2021/07/03 09:15:32;;;;;;;2.10;1.90;;;;;;;42.74;21.46;99059.41;5087690;28;43174;-83
2021/07/03 09:18:02;;;;;;;2.10;1.90;;;;;;;43.03;20.95;99056.44;5088173;28;41908;-85
2021/07/03 09:20:36;;;;;;;1.88;1.77;;;;;;;43.24;20.53;99045.84;5070942;28;38824;-85
2021/07/03 09:23:10;;;;;;;1.95;1.85;;;;;;;43.01;21.67;99036.44;5071679;28;40584;-85
2021/07/03 09:25:41;;;;;;;2.00;1.90;;;;;;;42.57;22.08;99025.66;5072603;28;41885;-85
2021/07/03 09:28:14;;;;;;;1.83;1.70;;;;;;;42.19;22.43;99025.59;5088197;28;42990;-85
2021/07/03 09:30:44;;;;;;;1.70;1.60;;;;;;;41.22;23.48;99005.53;5105560;28;38872;-85
2021/07/03 09:33:17;;;;;;;1.87;1.77;;;;;;;40.68;21.99;99028.66;5088187;28;40785;-85
2021/07/03 09:35:45;;;;;;;2.20;2.00;;;;;;;40.11;23.47;99007.88;5071262;28;42081;-84
2021/07/03 09:38:14;;;;;;;1.87;1.77;;;;;;;38.95;25.21;98994.25;5070565;28;42515;-84
2021/07/03 09:40:43;;;;;;;2.23;2.03;;;;;;;37.65;26.23;98991.63;5071676;28;39193;-86
2021/07/03 09:43:13;;;;;;;2.13;1.97;;;;;;;37.13;27.37;98974.94;5088572;28;42027;-86
2021/07/03 09:45:48;;;;;;;2.47;2.23;;;;;;;36.15;28.01;98975.09;5088186;28;43559;-84
2021/07/03 09:48:31;;;;;;;2.57;2.27;;;;;;;35.25;28.32;98968.09;5115509;27;20234;-84
2021/07/03 09:51:09;;;;;;;1.73;1.63;;;;;;;35.17;29.75;98954.72;5071677;28;39125;-84
2021/07/03 09:53:37;;;;;;;2.40;2.03;;;;;;;36.26;30.68;98937.44;5088683;28;42059;-84
2021/07/03 09:56:07;;;;;;;3.13;2.10;;;;;;;38.07;26.67;98973.00;5071671;28;43210;-84
2021/07/03 09:58:35;;;;;;;1.70;1.60;;;;;;;38.05;26.59;98979.91;5117127;27;42239;-85
2021/07/03 10:01:03;;;;;;;3.33;2.53;;;;;;;38.12;26.81;98974.97;5087557;28;40782;-85
2021/07/03 10:03:32;;;;;;;2.10;1.90;;;;;;;37.11;27.11;98966.91;5069294;28;40644;-85
2021/07/03 10:06:00;;;;;;;2.00;1.80;;;;;;;36.11;29.05;98959.31;5086034;28;43180;-83
2021/07/03 10:08:29;;;;;;;1.73;1.63;;;;;;;35.11;30.49;98933.72;5068690;28;41742;-84
2021/07/03 10:11:00;;;;;;;1.53;1.43;;;;;;;34.53;30.40;98943.22;5085953;28;39998;-83
2021/07/03 10:13:32;;;;;;;2.10;1.90;;;;;;;34.77;30.00;98943.09;5086098;28;42019;-83
2021/07/03 10:16:05;;;;;;;1.80;1.70;;;;;;;34.94;28.86;98949.44;5086843;28;43312;-84
2021/07/03 10:18:33;;;;;;;1.53;1.43;;;;;;;34.75;28.77;98945.22;5070901;28;41274;-83
2021/07/03 10:21:09;;;;;;;2.13;1.83;;;;;;;34.89;28.93;98935.56;5070893;28;40683;-83
2021/07/03 10:23:38;;;;;;;1.53;1.43;;;;;;;34.99;28.62;98938.47;5068287;28;40829;-83
2021/07/03 10:26:06;;;;;;;1.77;1.67;;;;;;;35.03;29.44;98936.91;5071139;28;43040;-83
2021/07/03 10:28:37;;;;;;;1.90;1.80;;;;;;;34.90;30.13;98926.22;5087469;28;41935;-83
2021/07/03 10:31:08;;;;;;;1.70;1.60;;;;;;;34.54;30.01;98924.78;5088671;28;39798;-84
2021/07/03 10:33:45;;;;;;;2.30;2.10;;;;;;;34.64;30.84;98921.38;5070200;28;42028;-83
2021/07/03 10:36:27;;;;;;;2.20;2.00;;;;;;;34.53;31.37;98866.19;5070583;28;43285;-83
2021/07/03 10:38:55;;;;;;;2.47;2.00;;;;;;;35.10;30.23;98915.53;5071969;28;42276;-83
2021/07/03 10:41:25;;;;;;;1.93;1.83;;;;;;;35.45;29.69;98922.66;5070203;28;38869;-84
2021/07/03 10:43:55;;;;;;;1.80;1.70;;;;;;;35.70;30.76;98911.13;5087641;28;41624;-84
2021/07/03 10:46:29;;;;;;;1.77;1.67;;;;;;;35.27;26.74;98941.13;5070205;28;43105;-83
2021/07/03 10:48:58;;;;;;;1.70;1.60;;;;;;;34.56;27.89;98925.38;5073168;28;42535;-84
2021/07/03 10:51:32;;;;;;;2.10;1.90;;;;;;;34.63;29.06;98926.03;5093080;28;40248;-85
2021/07/03 10:54:11;;;;;;;2.17;1.97;;;;;;;34.53;28.89;98921.19;5074866;28;40650;-84
2021/07/03 10:56:49;;;;;;;1.70;1.60;;;;;;;34.51;28.52;98920.63;5091242;28;42995;-85
2021/07/03 10:59:24;;;;;;;1.80;1.50;;;;;;;34.58;30.24;98913.03;5074206;28;41739;-82
2021/07/03 11:01:53;;;;;;;1.80;1.60;;;;;;;34.68;31.61;98895.03;5074742;28;40138;-81
2021/07/03 11:04:22;;;;;;;1.70;1.60;;;;;;;34.27;31.32;98853.09;5090889;28;42021;-83
2021/07/03 11:06:52;;;;;;;1.67;1.50;;;;;;;34.09;32.42;98859.66;5091315;28;42148;-81
2021/07/03 11:09:23;;;;;;;2.10;1.80;;;;;;;33.89;32.71;98862.84;5088886;28;42991;-82
2021/07/03 11:11:50;;;;;;;3.23;2.20;;;;;;;33.85;30.83;98872.69;5090760;28;39893;-81
2021/07/03 11:14:20;;;;;;;1.80;1.70;;;;;;;33.67;30.73;98870.06;5090607;28;40894;-80
2021/07/03 11:16:53;;;;;;;1.70;1.60;;;;;;;33.43;31.39;98883.06;5073342;28;42079;-81
2021/07/03 11:19:22;;;;;;;1.70;1.60;;;;;;;33.08;30.70;98877.59;5088914;28;42649;-81
2021/07/03 11:21:50;;;;;;;1.67;1.40;;;;;;;32.43;32.10;98832.97;5072966;28;39884;-82
2021/07/03 11:24:18;;;;;;;1.70;1.60;;;;;;;32.20;33.88;98842.00;5090337;28;40861;-84
2021/07/03 11:26:46;;;;;;;2.70;1.87;;;;;;;32.04;35.53;98834.41;5090893;28;42935;-82
2021/07/03 11:29:24;;;;;;;2.80;2.60;;;;;;;32.01;34.39;98840.41;5088891;28;41051;-84
2021/07/03 11:32:03;;;;;;;1.90;1.80;;;;;;;32.48;33.21;98850.41;5073611;28;38869;-82
2021/07/03 11:34:31;;;;;;;1.83;1.70;;;;;;;32.59;32.16;98836.91;5071691;28;41346;-82
2021/07/03 11:36:59;;;;;;;1.67;1.57;;;;;;;32.42;32.98;98845.84;5088189;28;42728;-82
2021/07/03 11:39:27;;;;;;;2.40;1.90;;;;;;;32.72;31.44;98855.91;5089578;28;43165;-82
2021/07/03 11:42:04;;;;;;;1.83;1.73;;;;;;;32.68;32.60;98839.06;5090493;28;39814;-81
2021/07/03 11:44:32;;;;;;;1.97;1.80;;;;;;;32.48;32.20;98858.63;5090581;28;41499;-82
2021/07/03 11:47:02;;;;;;;2.10;1.63;;;;;;;32.24;32.91;98843.22;5090593;28;42222;-82
2021/07/03 11:49:29;;;;;;;1.80;1.70;;;;;;;32.11;32.79;98832.44;5073380;28;41271;-82